第8屆(2017)北區豐盛人生健樂長跑比賽
3 Dec, 2017 Sunday Temperature : 17°C;  Humidity :76%
10公里跑
組別名稱 賽程總名次 組別名次 號碼布編號 中文姓名 英文姓名 大會時間
RaceCatNameChi RkOverall RkCat Bib NameChi NameEng OfficialTime
男子10公里學生甲組 9 1 5054 劉冠良 Lau Kkwun Leung 00:39:25
男子10公里學生甲組 10 2 5079 麥嘉熙 Mak Ka Hay 00:39:30
男子10公里學生甲組 52 3 5068 冼啟衡 Sin Kai Hang 00:43:54
男子10公里學生甲組 53 4 5083 陳曉俊 Chan Hiu Chun 00:43:57
男子10公里學生甲組 63 5 5082 申浩榮 Sun Ho Wing 00:44:45
男子10公里學生甲組 83 6 5006 張頌謙 CHEUNG CHUNG HIM 00:46:09
男子10公里學生甲組 86 7 5069 黃華嘉 Wong Wa Ka 00:46:20
男子10公里學生甲組 115 8 5056 盧沛聰 Lo Pai Chung 00:47:43
男子10公里學生甲組 137 9 5066 黎志鵬 Li ZHIPENG 00:48:41
男子10公里學生甲組 150 10 5021 徐德隆 TSUI TAK LUNG 00:49:13
男子10公里學生甲組 151 11 5084 鄭庭傑 Cheng Ting Kit 00:49:13
男子10公里學生甲組 155 12 5022 翟家偉 CHAK KA WAI 00:49:14
男子10公里學生甲組 202 13 5036 胡駿諾 WOO CHUN NOK 00:50:54
男子10公里學生甲組 223 14 5052 施朗頴 Si Long Wing 00:51:44
男子10公里學生甲組 226 15 5037 鍾竣樺 CHUNG CHUN WA 00:51:48
男子10公里學生甲組 246 16 5064 黃俊諺 WONG CHUN YIN 00:52:28
男子10公里學生甲組 249 17 5081 何文樂 Ho Man Lok 00:52:32
男子10公里學生甲組 269 18 5015 吳梓僖 NG TSZ HEI 00:53:19
男子10公里學生甲組 273 19 5028 黃曉哲 WONG HIU CHIT 00:53:27
男子10公里學生甲組 274 20 5098 何傑生 Ho Kit Sang 00:53:28
男子10公里學生甲組 304 21 5011 吳尚澄 NG SHEUNG CHING 00:54:46
男子10公里學生甲組 308 22 5002 黃浚濠 Wong Tsun Ho 00:54:49
男子10公里學生甲組 335 23 5097 劉志鋒 Lau Chi Fung 00:55:34
男子10公里學生甲組 352 24 5100 楊烙銘 Yeung Lok Ming 00:56:14
男子10公里學生甲組 358 25 5026 林伊航 LIN YIHANG 00:56:29
男子10公里學生甲組 360 26 5001 王天諾 Wong Tin Nok 00:56:32
男子10公里學生甲組 371 27 5031 方嘉龍 FONG KA LUNG 00:56:53
男子10公里學生甲組 390 28 5034 馬文浩 MA MAN HO 00:57:15
男子10公里學生甲組 420 29 5067 曾浩俊 Tsang Ho Chun 00:57:54
男子10公里學生甲組 436 30 5059 湯澤琛 Tong Chak Sum 00:58:23
男子10公里學生甲組 448 31 5050 唐健良 Tong Kin Leung 00:58:47
男子10公里學生甲組 462 32 5029 葉潤軒 YIP YUN HIN 00:59:15
男子10公里學生甲組 511 33 5024 黃錦鴻 HUANG JINHONG 01:00:39
男子10公里學生甲組 512 34 5038 孫旺維 SUEN WONG WAI 01:00:40
男子10公里學生甲組 519 35 5049 陳非池 Chan Fei Chi 01:01:17
男子10公里學生甲組 520 36 5053 黃澔朗 Wong Ho Long 01:01:21
男子10公里學生甲組 533 37 5023 趙崇瀧 CHIO SUNG SHEUNG 01:01:45
男子10公里學生甲組 539 38 5042 陳璟瑜 Chan King Yu 01:01:50
男子10公里學生甲組 544 39 5017 鄭國彬 CHENG KWOK PAN 01:01:55
男子10公里學生甲組 566 40 5044 周煒樂 Chow Wai Lok 01:02:15
男子10公里學生甲組 576 41 5076 劉子誠 Lau Tsz Shing 01:02:52
男子10公里學生甲組 579 42 5099 趙穗源 Chiu Sui Yuen 01:02:58
男子10公里學生甲組 586 43 5027 盧紀文 LO KEI MAN 01:03:23
男子10公里學生甲組 614 44 5018 張皓嵐 CHEUNG BRANDON 01:05:14
男子10公里學生甲組 649 45 5020 麥偉文 MAK WAI MAN 01:06:17
男子10公里學生甲組 650 46 5007 吳其駿 NG KEI CHUN GEORGE 01:06:20
男子10公里學生甲組 651 47 5008 黃樂賢 WONG LOK YIN LOUIS 01:06:21
男子10公里學生甲組 663 48 5019 雷坤 LUI KWAN 01:06:47
男子10公里學生甲組 676 49 5039 楊梓希 YEUNG TSZ HEI JONATHAN 01:07:52
男子10公里學生甲組 710 50 5062 高永天 Ko Wing Tin 01:09:32
男子10公里學生甲組 712 51 5010 馬卓軒 MA CHEUK HIN 01:09:40
男子10公里學生甲組 720 52 5013 譚文皓 TAM MAN HO 01:10:31
男子10公里學生甲組 733 53 5005 陳振龍 CHAN CHUN LUNG 01:11:34
男子10公里學生甲組 739 54 5040 梁令峯 Leung Ling Fung 01:12:13
男子10公里學生甲組 770 55 5051 張家暉 Cheung Ka Fai 01:13:47
男子10公里學生甲組 789 56 5014 黃家謙 WONG KA HIM 01:15:45
男子10公里學生甲組 800 57 5009 莊振中 CHONG CHUN CHUNG 01:16:40
男子10公里學生甲組 802 58 5035 常家亮 SHEUNG KA LEONG 01:17:33
男子10公里學生甲組 803 59 5055 何宏健 Ho Wang Kin 01:17:35
男子10公里學生甲組 811 60 5057 嚴健輝 Yan Kin Fai 01:17:40
男子10公里學生甲組 812 61 5060 侯傑議 Hau Kit Yee 01:17:46
男子10公里學生甲組 815 62 5043 黃靖軒 Wong Ching Hin Jason 01:18:14
男子10公里學生甲組 816 63 5046 張仲賢 Cheung Chung Yin 01:18:14
男子10公里學生甲組 817 64 5104 陳天朗 Chan Tin Long 01:18:21
男子10公里學生甲組 819 65 5102 溫雋文 Wan Chun Man 01:18:25
男子10公里學生甲組 820 66 5045 黃泓賓 Wong Wang Bun 01:18:28
男子10公里學生甲組 822 67 5101 彭彥皓 Pang Yin Ho 01:18:31
男子10公里學生甲組 844 68 5047 方柏禧 Fong Pak Hei 01:20:06
男子10公里學生甲組 850 69 5012 孫嘉熙 SUEN KA HEI 01:21:47
男子10公里學生甲組 858 70 5063 陳卓賢 CHAN CHEUK YIN 01:23:08
男子10公里學生甲組 868 71 5071 周衡澤 Chow Hang Chak Martin 01:25:00
男子10公里學生甲組 869 72 5048 洪錦倫 Hung Kam Lun 01:25:12
男子10公里學生甲組 888 73 5030 陳浚軒 CHAN TSUN HIN 01:31:16
男子10公里學生甲組 889 74 5033 陳嘉豪 CHAN KA HO 01:31:17
男子10公里學生甲組 890 75 5016 陳智健 CHAN CHI KIN 01:31:17
男子10公里學生甲組 908 76 5041 洪曉軒 Hung Hiu Hin 01:37:51
男子10公里學生甲組 920 77 5003 鄧沛霖 TANG PUI LAM 02:00:09
女子10公里學生甲組 109 1 6002 溫芷喬 Wan Tsz Kiu 00:47:34
女子10公里學生甲組 167 2 6047 袁雅詩 Yuen Nga Sze 00:49:36
女子10公里學生甲組 271 3 6049 劉嘉琦 Lau Ka KI 00:53:22
女子10公里學生甲組 298 4 6045 黃嘉欣 Wong Ka Yan 00:54:38
女子10公里學生甲組 303 5 6006 劉穎彤 LAU WING TUNG 00:54:46
女子10公里學生甲組 344 6 6003 黃樂兒 Wong Lok Yi 00:55:55
女子10公里學生甲組 398 7 6050 李垚 Li Liu 00:57:22
女子10公里學生甲組 488 8 6004 劉佳佳 LAU KAI KAI 01:00:00
女子10公里學生甲組 557 9 6044 陳靜璇 Chan Ching Shuen Stephanie 01:02:03
女子10公里學生甲組 675 10 6007 彭素萍 PANG SO PING 01:07:48
女子10公里學生甲組 704 11 6046 邱子君 Yau Tsz Kwan 01:09:21
女子10公里學生甲組 719 12 6034 鄭崇欣 Cheng Sung Yan 01:10:26
女子10公里學生甲組 771 13 6028 吳欣蔚 NG YAN WAI 01:14:07
女子10公里學生甲組 845 14 6015 梁文希 LEUNG MAN HEI 01:20:26
女子10公里學生甲組 846 15 6017 魯詠欣 LO WING YAN 01:20:27
女子10公里學生甲組 847 16 6005 何恩希 HO YAN HEI 01:20:50
女子10公里學生甲組 849 17 6013 馮美源 FUNG MEI YUEN 01:21:20
女子10公里學生甲組 851 18 6010 黃翎 WONG LING ANGEL 01:21:52
女子10公里學生甲組 852 19 6008 趙雅妍 CHIU NGA YIN 01:22:07
女子10公里學生甲組 853 20 6037 李珊珊 LI SHANSHAN 01:22:52
女子10公里學生甲組 855 21 6039 岑敏賢 SHUM MAN YIN 01:23:06
女子10公里學生甲組 857 22 6038 李詠議 LI WING YEE 01:23:08
女子10公里學生甲組 859 23 6040 許藍天 XU LANTIAN 01:23:09
女子10公里學生甲組 864 24 6025 黃欣怡 HUANG XINYI 01:24:05
女子10公里學生甲組 865 25 6016 盧思穎 LO SZE WING 01:24:06
女子10公里學生甲組 866 26 6014 胡雨涵 HU YUHAN 01:24:10
女子10公里學生甲組 867 27 6019 黃月丹 WONG YUET TAN 01:24:39
女子10公里學生甲組 876 28 6018 吳嘉文 NG KA MAN 01:26:45
女子10公里學生甲組 877 29 6026 楊子茵 YEUNG TSZ YAN 01:26:52
女子10公里學生甲組 879 30 6001 陳依婷 Chan Yee Ting 01:27:24
女子10公里學生甲組 880 31 6029 蕭慧琳 SIU WAI LAM 01:27:47
女子10公里學生甲組 893 32 6011 黃月淇 WONG YUET KEI 01:32:15
女子10公里學生甲組 898 33 6031 吳芷昕 NG TSZ YAN 01:33:36
女子10公里學生甲組 911 34 6012 陳潔盈 CHAN KIT YING 01:39:18
女子10公里學生甲組 912 35 6023 陳泳瑤 CHAN WING YIU 01:39:20
女子10公里學生甲組 915 36 6030 傅彩卉 FU CHOI WAI 01:41:55
男子10公里先進組 11 1 3167 葉家麟 Yip Ka Lun 00:40:01
男子10公里先進組 12 2 3385 黎錦歡 Lai Kam Foon 00:40:06
男子10公里先進組 17 3 3107 葉燕庭 Yip Yin Ting 00:40:25
男子10公里先進組 18 4 3198 蔡富宏 Choi Fu Wang 00:40:35
男子10公里先進組 20 5 3079 林熾參 Lam Chi Cham 00:40:41
男子10公里先進組 22 6 3117 蔡國偉 Choy Kwok Wai 00:40:53
男子10公里先進組 23 7 3109 黃啟文 Wong Kai Man 00:40:57
男子10公里先進組 24 8 3180 王國明 Wong Kwok Ming 00:40:57
男子10公里先進組 26 9 3200 羅永邦 Law Wing Pong 00:41:30
男子10公里先進組 28 10 3360 陳浩輝 Chan Ho Fai 00:41:43
男子10公里先進組 29 11 3135 吳偉文 Ng Wai Man 00:41:49
男子10公里先進組 30 12 3194 梁光明 Leung Kwong Ming 00:41:49
男子10公里先進組 31 13 3399 趙欣 00:41:49
男子10公里先進組 34 14 3093 何景樹 Ho King Shu Gary 00:42:33
男子10公里先進組 35 15 3355 趙振聲 Chiu Chun Sing 00:42:37
男子10公里先進組 39 16 3161 葉振宗 Yip Chun Chung 00:42:56
男子10公里先進組 40 17 3053 高少峯 Ko Siu Fung 00:43:01
男子10公里先進組 43 18 3124 侯傑有 Hau Kit Yau 00:43:13
男子10公里先進組 50 19 3204 梁國偉 Leung Kwok Wai   00:43:49
男子10公里先進組 54 20 3113 劉健鵬 Lau Kin Pang 00:43:58
男子10公里先進組 56 21 3191 蘇偉基 So Wai Kei 00:44:01
男子10公里先進組 59 22 3393 鍾智輝 Chung Chi Fai 00:44:17
男子10公里先進組 61 23 3272 賀文偉 Ho Man Wai 00:44:37
男子10公里先進組 62 24 3061 Lui Ka Wa Alex 00:44:45
男子10公里先進組 66 25 3306 馮浩安 Fung Ho On 00:45:11
男子10公里先進組 67 26 3395 邱國亮 Yau Kwok Leung 00:45:20
男子10公里先進組 69 27 3092 徐德明 Tsui Tak Ming 00:45:24
男子10公里先進組 70 28 3064 林克輝 Lam Hak Fai 00:45:24
男子10公里先進組 72 29 3011 林國威 Lam Kwok Wai 00:45:27
男子10公里先進組 73 30 3201 龍定強 Loong Ting Keung 00:45:42
男子10公里先進組 75 31 3047 李志成 Li Chi Shing 00:45:46
男子10公里先進組 76 32 3076 羅錦華 Lo Kam Wah 00:45:49
男子10公里先進組 78 33 3220 陳達生 Chan Tat Sang 00:45:51
男子10公里先進組 80 34 3147 嚴輝 Yim Fai Dicky 00:45:59
男子10公里先進組 82 35 3289 侯耀武 Hau Yiu Mo 00:46:05
男子10公里先進組 87 36 3043 莫偉聰 Mok Wai Chung 00:46:20
男子10公里先進組 88 37 3359 陳偉明 Chan Wai Ming 00:46:34
男子10公里先進組 91 38 3271 劉偉河 Lau Wai Ho River 00:46:38
男子10公里先進組 92 39 3035 詹永倫 Chim Wing Lun 00:46:42
男子10公里先進組 95 40 3259 饒凌光 Yiu Ling Kwong 00:46:47
男子10公里先進組 97 41 3226 李卓斌 Lee Cheuk Pan 00:47:04
男子10公里先進組 99 42 3070 鄧國僖 Tang Kwok Hei 00:47:09
男子10公里先進組 100 43 3264 許國俊 Hui Kwok Chun 00:47:11
男子10公里先進組 101 44 3114 楊國基 Yeung Kwok Kee Wilson 00:47:15
男子10公里先進組 103 45 3042 劉國華 Lau Kwok Wah 00:47:20
男子10公里先進組 105 46 3178 王本恩 Wong Poon Yan 00:47:27
男子10公里先進組 106 47 3120 葉偉康 Yip Wai Hong 00:47:28
男子10公里先進組 107 48 3102 李明亮 Li Ming Leung 00:47:31
男子10公里先進組 108 49 3231 梁安 Leung On 00:47:33
男子10公里先進組 110 50 3142 陳志新 Chan Chi Sun 00:47:34
男子10公里先進組 111 51 3213 梁光宗 Leung Kwong Chung 00:47:36
男子10公里先進組 114 52 3091 何啟綸 Ho Kai Lun 00:47:40
男子10公里先進組 116 53 3080 李光 Li Kwomg 00:47:44
男子10公里先進組 119 54 3394 李志新 Lee Chi Sun 00:47:50
男子10公里先進組 121 55 3199 陳頴臻 Chan Wing Chun 00:48:02
男子10公里先進組 122 56 3300 孫日強 Suen Yat Keung Matthew 00:48:07
男子10公里先進組 125 57 3072 余偉雄 Yu Wai  Hung 00:48:16
男子10公里先進組 127 58 3060 NG Ting Ming 00:48:24
男子10公里先進組 134 59 3392 陳玉卿 Chan Yuk Hing Alan 00:48:37
男子10公里先進組 138 60 3252 林偉雄 Lam Wai Hung 00:48:48
男子10公里先進組 140 61 3044 李展鴻 Lee Chin Hing 00:48:54
男子10公里先進組 141 62 3339 吳栢怡 Ng Pak Yee 00:48:55
男子10公里先進組 143 63 3023 王志斌 Wong Chi Bun 00:48:59
男子10公里先進組 148 64 3105 潘正德 Poon Ching Tak 00:49:08
男子10公里先進組 149 65 3048 黃兆文 Wong Siu Man 00:49:09
男子10公里先進組 152 66 3328 陳昌耀 Chan Cheong Yiu 00:49:13
男子10公里先進組 153 67 3189 So Woon Cheung 00:49:13
男子10公里先進組 154 68 3099 李建和 Li Kin Wo 00:49:13
男子10公里先進組 162 69 3276 郭志明 Kwok Chi Ming 00:49:21
男子10公里先進組 164 70 3138 陳偉祥 Chan Wai Cheung 00:49:25
男子10公里先進組 166 71 3292 邵礎翹 Shiu Chor Kiu 00:49:34
男子10公里先進組 169 72 3214 陳森田 Chan Sum Tin Alan 00:49:38
男子10公里先進組 174 73 3040 徐小興 Tsui Siu Hing 00:49:52
男子10公里先進組 175 74 3376 倪友基 Ngai Yau Ki 00:49:58
男子10公里先進組 176 75 3184 陳賢俠 Chan Yin Hop 00:49:59
男子10公里先進組 177 76 3148 陳達華 Chan Tak Wah 00:49:59
男子10公里先進組 178 77 3121 葉偉恆 Yip Wai Hang 00:50:03
男子10公里先進組 179 78 3387 李慧賢 Li Wai Yin 00:50:05
男子10公里先進組 181 79 3162 尹嘉豪 Wan Ka Ho 00:50:13
男子10公里先進組 184 80 3362 李忠泰 Lee Chung Tai 00:50:16
男子10公里先進組 185 81 3085 鄧偉雄 Tang Wai Hung 00:50:17
男子10公里先進組 186 82 3069 李國成 Li Kwok Sing 00:50:22
男子10公里先進組 187 83 3398 丘奮 Yau Fan 00:50:25
男子10公里先進組 188 84 3363 簡永強 Kan Wing Keung 00:50:26
男子10公里先進組 189 85 3170 羅礎健 Lo Chor Kin 00:50:28
男子10公里先進組 190 86 3340 羅志明 Law Chi Ming 00:50:29
男子10公里先進組 191 87 3089 鄭毅敏 Cheng Ngai Man 00:50:31
男子10公里先進組 195 88 3297 伍漢興 Ng Hon Hing 00:50:39
男子10公里先進組 196 89 3314 陳偉基 Chan Wai Kei 00:50:41
男子10公里先進組 198 90 3237 Szeto Chi King 00:50:43
男子10公里先進組 200 91 3225 陳澤恩 Chan Chak Yan 00:50:47
男子10公里先進組 203 92 3397 陳仕環 Chan See Wan Philip 00:50:56
男子10公里先進組 205 93 3293 Lee Yuk Fai 00:50:59
男子10公里先進組 213 94 3017 葉志偉 Yip Chi Wai 00:51:14
男子10公里先進組 215 95 3025 高錦榮 Ko Kam Wing 00:51:20
男子10公里先進組 217 96 3369 張之龍 Cheung Chi Lung 00:51:23
男子10公里先進組 219 97 3036 馮國基 Fung Kwok Ki 00:51:28
男子10公里先進組 222 98 3015 陳啟源 Chan Kai Yuen 00:51:34
男子10公里先進組 224 99 3139 姚賽帆 Yiu Choi Fan 00:51:45
男子10公里先進組 225 100 3373 蕭又豪 XIAO YOUHAO 00:51:47
男子10公里先進組 228 101 3402 何安榮 Ho On Wing 00:51:56
男子10公里先進組 230 102 3215 黃志兒 Wong Chi Yee 00:51:58
男子10公里先進組 231 103 3027 蔡國城 Choy Kwok Sing 00:51:58
男子10公里先進組 239 104 3185 范春林 Fan Chun Lam 00:52:19
男子10公里先進組 240 105 3097 蔡得榮 Choi Tak Wing 00:52:19
男子10公里先進組 241 106 3190 黎鍚昌 Lai Shik Cheong 00:52:20
男子10公里先進組 243 107 3045 林英偉 Lam Ying Wai 00:52:26
男子10公里先進組 253 108 3168 梁紹輝 Leung Siu Fai 00:52:38
男子10公里先進組 254 109 3149 沈俊明 Sum Chun Ming 00:52:38
男子10公里先進組 257 110 3088 黃永昌 Wong Wing Cheong 00:52:49
男子10公里先進組 259 111 3165 吳錦泉 Ng Kam Chuen 00:52:57
男子10公里先進組 261 112 3063 余送來 Yu Sung Loi 00:53:01
男子10公里先進組 263 113 3140 黎浩然 Lai Ho Yin 00:53:06
男子10公里先進組 266 114 3222 陳冠東 Chan Kwun Tung 00:53:11
男子10公里先進組 268 115 3354 秦志強 Chun Chi Keung Water 00:53:17
男子10公里先進組 270 116 3311 蕭冠球 Siu Koon Kau 00:53:21
男子10公里先進組 276 117 3187 盧美乾 Lo Mei Kuen 00:53:30
男子10公里先進組 277 118 3137 吳萃鵬 Ng Sui Pang 00:53:30
男子10公里先進組 279 119 3274 吳祥偉 Ng Cheung Wai 00:53:32
男子10公里先進組 280 120 3112 梁灼明 Leung Cheuk Ming Stephen 00:53:39
男子10公里先進組 283 121 3002 黃金培 Wong Kam Pui 00:53:47
男子10公里先進組 284 122 3169 劉志堅 Lau Chi Kien 00:53:52
男子10公里先進組 285 123 3307 黃耀光 Wong Tiu Kwong 00:53:54
男子10公里先進組 286 124 3067 關惠文 Kwan wai Man 00:53:56
男子10公里先進組 287 125 3253 黎坤耀 Lai Kwan Yiu 00:54:28
男子10公里先進組 291 126 3288 蔡志然 Choy Chee Yen 00:54:31
男子10公里先進組 293 127 3234 黃榮輝 Wong Wing Fai 00:54:33
男子10公里先進組 294 128 3268 余漢城 Yu Hon Sing 00:54:35
男子10公里先進組 295 129 3096 季禮聲 Chee Lai Sing 00:54:36
男子10公里先進組 296 130 3049 鄺勉樂 Kwong Min Lok 00:54:37
男子10公里先進組 297 131 3267 胡仲良 Wu Chung Leung Michael 00:54:38
男子10公里先進組 301 132 3205 蘇忠立 So Chung Lao 00:54:44
男子10公里先進組 305 133 3229 鍾德榮 Chung Tak Wing 00:54:47
男子10公里先進組 306 134 3075 陳漢浩 Chan Hon Ho 00:54:48
男子10公里先進組 309 135 3219 何鈺佳 Ho Yuk Kai 00:54:49
男子10公里先進組 311 136 3125 侯志良 Hau Chi Leung 00:54:49
男子10公里先進組 312 137 3357 余天恩 Yu Tin Yan 00:54:51
男子10公里先進組 313 138 3298 黃維基 hs 00:54:51
男子10公里先進組 317 139 3100 鍾君武 Chung Kwan Mo 00:54:55
男子10公里先進組 319 140 3308 區偉民 Au Wai Man 00:54:58
男子10公里先進組 327 141 3207 黎志昌 Lai Chi Cheong 00:55:14
男子10公里先進組 329 142 3115 陳國輝 Chan Kwok Fai 00:55:22
男子10公里先進組 330 143 3104 王劍明 Wong Kim Ming 00:55:23
男子10公里先進組 331 144 3211 蔡應倫 Choi Ying Lun 00:55:24
男子10公里先進組 333 145 3056 黃錫泉 Wong Sik Chuen 00:55:26
男子10公里先進組 334 146 3244 楊植渭 Yeung Chik Wai 00:55:32
男子10公里先進組 336 147 3174 鄧卓然 Tang Cheuk Yin 00:55:34
男子10公里先進組 337 148 3005 林智民 Lam Che Man Anthony 00:55:35
男子10公里先進組 345 149 3235 楊崇海 Yeung Shun Hoi 00:55:59
男子10公里先進組 346 150 3164 劉錦全 Lau Kam Chuen 00:56:04
男子10公里先進組 348 151 3028 魏國樑 Ngai Kwok Liang 00:56:09
男子10公里先進組 350 152 3157 趙文友 Chiu Man Yau 00:56:12
男子10公里先進組 351 153 3217 沙慶文 Sha Hing Man 00:56:13
男子10公里先進組 353 154 3181 陳榮波 Chan Wing Por 00:56:14
男子10公里先進組 357 155 3151 劉國雄 Lau Kwok Hung 00:56:23
男子10公里先進組 359 156 3094 鍾耀光 Chung Yiu Kwong 00:56:32
男子10公里先進組 361 157 3033 余智賢 Yu Chi Yin 00:56:32
男子10公里先進組 363 158 3074 彭博民 Pang Pok Man 00:56:37
男子10公里先進組 364 159 3241 鄧洪金 Tang Hung Kam 00:56:38
男子10公里先進組 365 160 3216 張秋明 Cheung Chau Ming 00:56:39
男子10公里先進組 366 161 3378 吳俊明 Ng Chun Ming 00:56:44
男子10公里先進組 367 162 3077 陳雲蒿 Chan Wan Shong 00:56:45
男子10公里先進組 369 163 3193 朱偉文 Chu Wai Man 00:56:46
男子10公里先進組 373 164 3103 魏柏林 Ngai Pak Lam 00:56:56
男子10公里先進組 375 165 3250 戴亞松 Tai Ah Chung 00:57:00
男子10公里先進組 377 166 3232 石錦新 Shek Kam Sun 00:57:02
男子10公里先進組 380 167 3348 李惠貞 Li Wai Ching 00:57:03
男子10公里先進組 381 168 3034 丘學頴 Yau Hok Wing 00:57:06
男子10公里先進組 383 169 3335 余富華 Yu Fu Wah 00:57:08
男子10公里先進組 387 170 3052 黃文輝 Wong Man Fai 00:57:13
男子10公里先進組 388 171 3030 周漢杰 Chau Hon Kit 00:57:14
男子10公里先進組 389 172 3029 陳景生 Chan King Sang 00:57:14
男子10公里先進組 391 173 3310 周楚廷 Chow Cho Ting 00:57:16
男子10公里先進組 394 174 3356 杜冠雄 To Koon Hung 00:57:18
男子10公里先進組 395 175 3143 劉子麟 Lau Chi Lin 00:57:19
男子10公里先進組 396 176 3280 吳永和 Ng Wing Wo 00:57:22
男子10公里先進組 402 177 3346 曾慶文 Tsang Hing Man 00:57:30
男子10公里先進組 403 178 3111 李六和 Lee Luk Wo 00:57:31
男子10公里先進組 404 179 3347 曾平和 Tsang Ping Wo 00:57:32
男子10公里先進組 406 180 3159 梁玉琪 Leung Yuk Ki 00:57:33
男子10公里先進組 408 181 3066 袁偉倫 Yuen Wai Lun 00:57:38
男子10公里先進組 409 182 3305 胡善松 Wu Sin Chung 00:57:41
男子10公里先進組 411 183 3126 盧錦昌 Lo Kam Cheong 00:57:42
男子10公里先進組 412 184 3270 梁金勝 Leung Kam Shing 00:57:43
男子10公里先進組 414 185 3251 葉麟輝 Yip Lun Fai 00:57:47
男子10公里先進組 415 186 3283 陳煒昇 Chan Wai Sing 00:57:48
男子10公里先進組 416 187 3171 葉漢華 Ip Hon Wah 00:57:48
男子10公里先進組 417 188 3003 楊山 Yeung Shan 00:57:50
男子10公里先進組 419 189 3375 胡文浩 Wu Man Ho 00:57:53
男子10公里先進組 423 190 3173 吳鎮雄 Ng Chun Hung 00:57:58
男子10公里先進組 426 191 3384 李向榮 Lee Hong Wing 00:58:05
男子10公里先進組 427 192 3062 李冠元 Li Koon Yuen Robert 00:58:07
男子10公里先進組 429 193 3317 盧昌耀 Lo Cheong Yiu 00:58:07
男子10公里先進組 430 194 3336 潘志雄 Poon  Chi Hung 00:58:11
男子10公里先進組 432 195 3396 歐陽浩 Au- Yeung Ho 00:58:18
男子10公里先進組 433 196 3130 雀輝緒 Tsui Fai Shui 00:58:19
男子10公里先進組 437 197 3009 陳偉升 Chan Wai Sing 00:58:30
男子10公里先進組 439 198 3275 羅冠華 Law Koon Wah 00:58:33
男子10公里先進組 441 199 3203 江志燊 Kong Chi Sun 00:58:39
男子10公里先進組 442 200 3014 王耀宗 Wong Yiu Chung 00:58:41
男子10公里先進組 443 201 3153 歐偉健 Au Wai Kin 00:58:42
男子10公里先進組 445 202 3391 李志明 Lee Chi Ming  00:58:44
男子10公里先進組 451 203 3054 游榮偉 YauWing Wai 00:58:58
男子10公里先進組 452 204 3389 蘇振邦 So Chun Pong 00:59:03
男子10公里先進組 453 205 3129 洪秋榮 Hung Chau Wing 00:59:05
男子10公里先進組 453 205 3301 吳偉倫 Ng Wai Lun 00:59:05
男子10公里先進組 455 207 3026 張偉光 Cheung Wai Kwong 00:59:07
男子10公里先進組 457 208 3322 陳志良 Chan Chi Leung 00:59:09
男子10公里先進組 459 209 3296 陳凱旋 Chan Hoi Suen 00:59:11
男子10公里先進組 460 210 3221 馮中偉 Fung Chun Wai 00:59:13
男子10公里先進組 461 211 3227 彭盛焜 Pang Sing Kwan 00:59:13
男子10公里先進組 463 212 3368 陸永泰 Luk Wing Tai 00:59:16
男子10公里先進組 465 213 3284 黃雙港 Wong Sheung Kong 00:59:19
男子10公里先進組 467 214 3218 柳瑞祥 Lau Shu Cheung Raymond 00:59:21
男子10公里先進組 468 215 3155 黃家駿 Wong Ka Chun 00:59:24
男子10公里先進組 469 216 3057 馬文財 Ma Man Choi 00:59:27
男子10公里先進組 471 217 3055 邱漢明 Yau Hon Ming 00:59:31
男子10公里先進組 473 218 3073 李松森 Lee Chung Sum 00:59:32
男子10公里先進組 474 219 3007 張觀勝 Cheung Kwun Shing 00:59:34
男子10公里先進組 477 220 3141 林雲輝 Lam Wan Fai 00:59:37
男子10公里先進組 479 221 3158 黃偉雄 Wong Wai Hung  00:59:50
男子10公里先進組 480 222 3123 溫羽富 Wan Yue Fu 00:59:51
男子10公里先進組 481 223 3245 梁凱威 Leung Hoi Wai 00:59:51
男子10公里先進組 484 224 3329 陳康鴻 Chan Hong Hung 00:59:57
男子10公里先進組 486 225 3330 曹漢球 Cho Hon Kau 00:59:59
男子10公里先進組 487 226 3154 邱國良 Yau Kwok Leung 00:59:59
男子10公里先進組 490 227 3334 王潤強 Wong Yuen Keung 01:00:03
男子10公里先進組 491 228 3230 雷得成 Lui Tak Shing 01:00:05
男子10公里先進組 494 229 3172 藍偉均 Nam Wai Kwan 01:00:07
男子10公里先進組 495 230 3374 陳松達 Chan Chung Tat 01:00:09
男子10公里先進組 506 231 3144 葉子恆 Yip Chi Hang Czeven 01:00:32
男子10公里先進組 508 232 3004 鄧炳森 Tang Ping Sum 01:00:33
男子10公里先進組 510 233 3282 林萬琪 Lam Man Kei 01:00:39
男子10公里先進組 515 234 3186 何有華 Ho Yau Wah 01:00:50
男子10公里先進組 516 235 3321 莫炳坤 Mok Ping Kwan 01:00:55
男子10公里先進組 517 236 3210 邱錦輝 Yau Kam Fai 01:01:13
男子10公里先進組 521 237 3131 林傍水 Lam Pong Sui 01:01:25
男子10公里先進組 523 238 3243 李強申 Li Keung Sun 01:01:29
男子10公里先進組 524 239 3366 陳錦泰 Chan Kam Tai 01:01:30
男子10公里先進組 526 240 3024 羅志明 Lo Chi Ming 01:01:35
男子10公里先進組 528 241 3383 郭志豪 Kwok Chi Ho 01:01:39
男子10公里先進組 529 242 3254 姜智森 Keung Chi Sam 01:01:40
男子10公里先進組 530 243 3132 曾裔富 Tsang Yui Fu 01:01:40
男子10公里先進組 532 244 3046 葉文傑 Yip Man Kit 01:01:45
男子10公里先進組 534 245 3248 蘇國新 So Kwok Sun Kenny 01:01:46
男子10公里先進組 535 246 3083 呂振雄 Lui Chan Hung 01:01:46
男子10公里先進組 537 247 3150 包立群 Pao Lap Kwan 01:01:48
男子10公里先進組 538 248 3037 胡焯昆 Woo Churk Kwan 01:01:49
男子10公里先進組 541 249 3372 何慶豐 Ho Hing Fung Henry 01:01:52
男子10公里先進組 547 250 3291 周華禧 Chow Wah Hei 01:01:57
男子10公里先進組 548 251 3146 梁永麟 Leung Wing Lun Alan 01:01:57
男子10公里先進組 550 252 3239 麥偉光 Mak Wai Kwong 01:01:58
男子10公里先進組 553 253 3242 周雅雄 Chow Nga Hung 01:01:59
男子10公里先進組 554 254 3333 譚緯超 Tam Wai Chiu 01:02:00
男子10公里先進組 556 255 3249 陳光平 Chan Kwong Ping 01:02:01
男子10公里先進組 558 256 3134 李錦名 Lee Kam Ming 01:02:03
男子10公里先進組 560 257 3179 王國啓 Wong Kwok Kai 01:02:06
男子10公里先進組 562 258 3302 黃志明 Wong Chi Ming 01:02:09
男子10公里先進組 563 259 3008 何遠就 Ho Yuen Chau 01:02:10
男子10公里先進組 564 260 3039 鄭鏗渭 Cheng Hang Wai 01:02:12
男子10公里先進組 565 261 3313 潘耀雄 Poon Yiu Hung 01:02:14
男子10公里先進組 570 262 3258 張耀華 Cheung Yiu Wah 01:02:40
男子10公里先進組 574 263 3038 羅偉舜 Law Wai Shun 01:02:44
男子10公里先進組 577 264 3315 王宇成 Wong Yu Shing 01:02:54
男子10公里先進組 578 265 3101 楊朝煒 Yeung Chiu Wai 01:02:57
男子10公里先進組 580 266 3001 陳河元 Chan Ho Yuen 01:02:59
男子10公里先進組 582 267 3233 張仲燊 Cheung Chung San 01:03:05
男子10公里先進組 584 268 3370 蔡俊明 Choy Chun Ming Ricky 01:03:13
男子10公里先進組 588 269 3228 鍾港曾 Chung Kong Tsang 01:03:28
男子10公里先進組 589 270 3240 陳桂明 Chan Kwai Ming 01:03:29
男子10公里先進組 590 271 3081 劉國康 Lau Kwok Hong 01:03:30
男子10公里先進組 591 272 3349 鄧宗漢 Tang Chung Hon 01:03:32
男子10公里先進組 594 273 3327 鄭朝佐 Cheng Chiu Chor 01:03:46
男子10公里先進組 599 274 3012 梁志強 Leung Chi Keung 01:04:16
男子10公里先進組 601 275 3324 袁令材 Yuen Ling Choi Leon 01:04:21
男子10公里先進組 605 276 3090 李光洪 Li Kwong Hung 01:04:56
男子10公里先進組 606 277 3400 薛甘華 Sit Kam Wah 01:05:00
男子10公里先進組 608 278 3303 區志源 Au Chi Yuen 01:05:03
男子10公里先進組 610 279 3195 楊汝銘 Yeung Yu Ming 01:05:04
男子10公里先進組 612 280 3312 陳光榮 Chan Kwong Wing 01:05:09
男子10公里先進組 613 281 3176 黃玉王 Wong Yuk Sang 01:05:13
男子10公里先進組 616 282 3377 區永河 Au Wing Ho 01:05:18
男子10公里先進組 619 283 3019 陳志昌 Chan Chi Cheong 01:05:20
男子10公里先進組 621 284 3051 伍佑牛 Ng Yau Ngau 01:05:26
男子10公里先進組 624 285 3290 柯兆輝 Khoo Siu Fai 01:05:30
男子10公里先進組 625 286 3295 杜少安 To Siu On David 01:05:32
男子10公里先進組 626 287 3016 區達輝 Au Tat Fai 01:05:32
男子10公里先進組 627 288 3188 Sidhu Amarjeet Singh 01:05:34
男子10公里先進組 628 289 3381 周凱駿 Chow Hoi Chun 01:05:36
男子10公里先進組 630 290 3281 黃達權 Wong Tat Kuen Ken 01:05:39
男子10公里先進組 631 291 3127 陳卓坤 Chan Chuk Kwan Jacky 01:05:39
男子10公里先進組 637 292 3021 孫樹明 Suen Shu Ming 01:05:46
男子10公里先進組 642 293 3156 馮詠生 Fung Wing Sang 01:05:57
男子10公里先進組 646 294 3401 何安榮 Yu Kam Tim 01:06:10
男子10公里先進組 655 295 3182 吳國權 Ng Kwok Keung 01:06:32
男子10公里先進組 657 296 3041 梁偉文 Leung Wai Man Nik 01:06:36
男子10公里先進組 659 297 3031 劉俊仁 Lau Chun Yan 01:06:41
男子10公里先進組 664 298 3118 何子謙 Ho Tze Him 01:06:48
男子10公里先進組 666 299 3133 林志強 Lam Chi Keung 01:06:53
男子10公里先進組 667 300 3208 黃志球 Wong Chi Kau 01:06:56
男子10公里先進組 671 301 3262 盧貴光 Lo Kwai Kwong 01:07:27
男子10公里先進組 683 302 3358 李逸松 Lee Yat Chung 01:08:13
男子10公里先進組 687 303 3353 龎兆祺 Pong Siu Ki 01:08:29
男子10公里先進組 692 304 3260 鄧兆僑 Tang Siu Kiu Lawrence 01:08:36
男子10公里先進組 694 305 3119 梁志明 Leung Che Ming 01:08:57
男子10公里先進組 695 306 3020 吳文偉 Ng Man Wai 01:09:00
男子10公里先進組 697 307 3098 李家健 Li Ka Kin 01:09:04
男子10公里先進組 698 308 3279 何金雄 Ho Kam Hung 01:09:10
男子10公里先進組 699 309 3256 周永春 Chow Wing Chun 01:09:11
男子10公里先進組 701 310 3018 李致仁 Li Chi Yun 01:09:16
男子10公里先進組 702 311 3166 梁士中 Gary Leung 01:09:17
男子10公里先進組 703 312 3323 林加祿 Lam Ka Luk Carlos 01:09:18
男子10公里先進組 705 313 3175 尹國雄 Wan Kwok Hung 01:09:22
男子10公里先進組 706 314 3177 龐國偉 Pong Kwok Wai 01:09:22
男子10公里先進組 708 315 3277 雷劍光 Lui Kim Kwong 01:09:28
男子10公里先進組 709 316 3087 鄧佛成 Tang Fat Shing 01:09:30
男子10公里先進組 714 317 3263 葉啟智 Yip Kai Chi 01:09:45
男子10公里先進組 715 318 3364 鍾美堂 Chung Mei Tong 01:09:59
男子10公里先進組 718 319 3058 鍾志光 Chung Chi Kwong 01:10:22
男子10公里先進組 725 320 3183 張志光 Cheung Chi Kwong 01:10:52
男子10公里先進組 728 321 3304 羅家志 Lo Ka Chi 01:11:15
男子10公里先進組 729 322 3269 方盛文 Fong Shing Man 01:11:25
男子10公里先進組 730 323 3266 趙洪興 Chiu Hung Hing 01:11:25
男子10公里先進組 731 324 3343 陳沛成 Chan Pui Shing 01:11:27
男子10公里先進組 734 325 3332 徐啓津 Tsui Kai Chun 01:11:44
男子10公里先進組 736 326 3345 林毅堅 Lam Ngai Kin 01:11:51
男子10公里先進組 738 327 3371 林文明 Lam Man Ming 01:12:13
男子10公里先進組 741 328 3325 羅信彬 Lo Shun Pan 01:12:17
男子10公里先進組 748 329 3145 陳加曦 Chan Ka Hei 01:12:30
男子10公里先進組 749 330 3013 譚鏡淳 Tam Kang Shun 01:12:33
男子10公里先進組 754 331 3078 何志威 Ho Chi Wai 01:12:55
男子10公里先進組 755 332 3352 鄧耀堂 Tang Yiu Tong 01:12:56
男子10公里先進組 760 333 3261 鄭竣元 Cheng Chun Yuen 01:13:21
男子10公里先進組 765 334 3278 江月明 Kong Yuet Ming 01:13:41
男子10公里先進組 766 335 3136 梁福華 Leung Fuk Wah 01:13:43
男子10公里先進組 767 336 3344 蕭偉傑 Siu Wai Kit 01:13:43
男子10公里先進組 769 337 3365 陳梓江 Chan Chi Kong 01:13:45
男子10公里先進組 772 338 3084 張英權 Cheung Ying Kung 01:14:08
男子10公里先進組 774 339 3299 葉鴻 Ip Hung 01:14:16
男子10公里先進組 777 340 3380 文志華 Man Chi Wah 01:14:50
男子10公里先進組 778 341 3286 廖志強 Liu Chi Keung 01:14:53
男子10公里先進組 788 342 3010 廖雄 Liu Hung Diamond 01:15:35
男子10公里先進組 790 343 3006 劉錦才 Lau Kam Choi 01:15:55
男子10公里先進組 791 344 3065 黃瑞坤 Wong Shui Kwan 01:15:57
男子10公里先進組 793 345 3206 顧又奇 Kao Yau Ki 01:16:13
男子10公里先進組 796 346 3338